Time;durP1;ratioP1;P1;durP2;ratioP2;P2;SDS_P1;SDS_P2;PMS_P1;PMS_P2;Temp;Humidity;BMP_temperature;BMP_pressure;BME280_temperature;BME280_humidity;BME280_pressure;Samples;Min_cycle;Max_cycle;Signal;HPM_P1;HPM_P2
2022/09/02 00:01:02;;;;;;;;;;;;;;;21.46;59.86;99149.28;5056474;28;19955;-45
2022/09/02 00:03:28;;;;;;;;;;;;;;;21.27;59.71;99144.53;5076755;28;20002;-45
2022/09/02 00:05:53;;;;;;;;;;;;;;;21.23;59.66;99143.97;5075004;28;20594;-45
2022/09/02 00:08:18;;;;;;;;;;;;;;;20.75;60.99;99143.94;5075388;28;20327;-45
2022/09/02 00:10:44;;;;;;;;;;;;;;;20.82;61.61;99144.34;5077835;28;19916;-45
2022/09/02 00:13:10;;;;;;;;;;;;;;;20.79;60.59;99132.31;5074217;28;19962;-46
2022/09/02 00:15:36;;;;;;;;;;;;;;;21.08;60.36;99129.38;5074179;28;20571;-46
2022/09/02 00:18:01;;;;;;;;;;;;;;;21.22;59.67;99128.34;5074873;28;19920;-46
2022/09/02 00:20:27;;;;;;;;;;;;;;;21.25;59.85;99133.34;5074927;28;19978;-46
2022/09/02 00:22:52;;;;;;;;;;;;;;;21.35;59.53;99123.88;5074345;28;20066;-46
2022/09/02 00:25:17;;;;;;;;;;;;;;;20.96;60.97;99125.00;5075453;28;19916;-45
2022/09/02 00:27:43;;;;;;;;;;;;;;;21.17;61.30;99123.44;5075217;28;20076;-45
2022/09/02 00:30:08;;;;;;;;;;;;;;;20.97;60.78;99121.47;5056693;28;19920;-45
2022/09/02 00:32:33;;;;;;;;;;;;;;;21.06;61.99;99120.78;5073495;28;19928;-45
2022/09/02 00:35:00;;;;;;;;;;;;;;;21.10;60.67;99117.00;5056868;28;20494;-45
2022/09/02 00:37:25;;;;;;;;;;;;;;;21.27;60.00;99116.56;5073763;28;19920;-46
2022/09/02 00:39:52;;;;;;;;;;;;;;;21.32;59.47;99118.84;5075508;28;19916;-46
2022/09/02 00:42:18;;;;;;;;;;;;;;;21.52;59.48;99112.16;5045916;28;20018;-45
2022/09/02 00:44:43;;;;;;;;;;;;;;;21.46;59.31;99112.59;5074469;28;20039;-46
2022/09/02 00:47:08;;;;;;;;;;;;;;;21.44;59.05;99122.34;5073683;28;20015;-46
2022/09/02 00:49:34;;;;;;;;;;;;;;;21.20;58.45;99111.91;5073981;28;20025;-45
2022/09/02 00:52:02;;;;;;;;;;;;;;;21.00;61.25;99116.81;5074596;28;19966;-45
2022/09/02 00:54:28;;;;;;;;;;;;;;;21.41;61.46;99114.72;5054673;28;19920;-46
2022/09/02 00:56:55;;;;;;;;;;;;;;;21.56;57.24;99116.22;5054064;28;19927;-46
2022/09/02 00:59:29;;;;;;;;;;;;;;;22.07;54.79;99115.78;5055884;28;19919;-46
2022/09/02 01:01:54;;;;;;;;;;;;;;;22.42;54.00;99111.34;5056764;28;19912;-45
2022/09/02 01:04:19;;;;;;;;;;;;;;;22.43;54.02;99118.28;5074692;28;19959;-45
2022/09/02 01:06:44;;;;;;;;;;;;;;;23.48;49.07;99105.41;5073379;28;19912;-45
2022/09/02 01:09:11;;;;;;;;;;;;;;;23.51;48.71;99102.50;5075231;28;19920;-45
2022/09/02 01:11:41;;;;;;;;;;;;;;;23.63;48.28;99104.13;5055468;28;20617;-45
2022/09/02 01:14:06;;;;;;;;;;;;;;;23.50;48.93;99103.47;5074740;28;19973;-46
2022/09/02 01:16:52;;;;;;;;;;;;;;;23.22;49.58;99115.44;5074131;28;20372;-45
2022/09/02 01:19:22;;;;;;;;;;;;;;;23.08;51.05;99113.94;5072688;28;20400;-45
2022/09/02 01:21:51;;;;;;;;;;;;;;;22.91;50.49;99105.63;5056900;28;19919;-45
2022/09/02 01:24:17;;;;;;;;;;;;;;;23.01;49.86;99105.72;5074046;28;19974;-45
2022/09/02 01:26:42;;;;;;;;;;;;;;;23.21;49.34;99104.09;5053322;28;20003;-45
2022/09/02 01:29:08;;;;;;;;;;;;;;;23.20;49.56;99110.31;5054723;28;20016;-45
2022/09/02 01:31:33;;;;;;;;;;;;;;;23.05;51.48;99114.22;5073798;28;19935;-45
2022/09/02 01:33:58;;;;;;;;;;;;;;;23.02;51.07;99103.97;5073203;28;20608;-45
2022/09/02 01:36:23;;;;;;;;;;;;;;;23.14;50.78;99102.94;5070895;28;19920;-45
2022/09/02 01:38:49;;;;;;;;;;;;;;;23.04;51.58;99096.81;5072927;28;19952;-45
2022/09/02 01:41:14;;;;;;;;;;;;;;;23.07;51.64;99096.53;5074654;28;19923;-45
2022/09/02 01:43:39;;;;;;;;;;;;;;;23.03;52.49;99095.13;5073829;28;19916;-46
2022/09/02 01:46:05;;;;;;;;;;;;;;;22.80;52.38;99095.16;5072608;28;19996;-45
2022/09/02 01:48:30;;;;;;;;;;;;;;;22.87;51.87;99091.06;5072920;28;19954;-45
2022/09/02 01:51:02;;;;;;;;;;;;;;;22.95;51.30;99088.66;5073206;28;19982;-45
2022/09/02 01:53:27;;;;;;;;;;;;;;;22.85;51.20;99079.84;5052843;28;19966;-45
2022/09/02 01:55:53;;;;;;;;;;;;;;;22.86;50.95;99084.16;5071236;28;20007;-45
2022/09/02 01:58:18;;;;;;;;;;;;;;;22.70;51.44;99083.75;5072766;28;19927;-45
2022/09/02 02:00:44;;;;;;;;;;;;;;;22.73;52.61;99079.06;5070874;28;19920;-45
2022/09/02 02:03:09;;;;;;;;;;;;;;;22.52;52.41;99080.81;5072282;28;20708;-45
2022/09/02 02:05:34;;;;;;;;;;;;;;;22.36;52.75;99091.69;5071803;28;20317;-45
2022/09/02 02:07:59;;;;;;;;;;;;;;;22.43;53.10;99082.38;5072889;28;19920;-46
2022/09/02 02:10:25;;;;;;;;;;;;;;;22.36;54.45;99086.44;5072639;28;19928;-45
2022/09/02 02:12:50;;;;;;;;;;;;;;;22.26;53.57;99080.25;5052465;28;19928;-45
2022/09/02 02:15:16;;;;;;;;;;;;;;;22.37;53.63;99082.88;5073019;28;19926;-45
2022/09/02 02:17:42;;;;;;;;;;;;;;;22.24;54.71;99087.44;5072292;28;19920;-46
2022/09/02 02:20:08;;;;;;;;;;;;;;;21.96;55.21;99084.28;5073106;28;19969;-45
2022/09/02 02:22:33;;;;;;;;;;;;;;;21.70;56.57;99089.78;5054883;28;19923;-46
2022/09/02 02:24:58;;;;;;;;;;;;;;;21.28;59.73;99081.56;5052753;28;19919;-45
2022/09/02 02:27:23;;;;;;;;;;;;;;;21.24;60.95;99077.50;5071870;28;20034;-45
2022/09/02 02:29:49;;;;;;;;;;;;;;;21.47;60.69;99082.84;5072096;28;20293;-46
2022/09/02 02:32:17;;;;;;;;;;;;;;;21.35;61.46;99078.47;5071624;28;19939;-45
2022/09/02 02:34:42;;;;;;;;;;;;;;;21.38;60.69;99073.03;5071926;28;19924;-45
2022/09/02 02:37:07;;;;;;;;;;;;;;;21.21;61.60;99077.75;5053847;28;20604;-45
2022/09/02 02:39:33;;;;;;;;;;;;;;;21.22;62.83;99079.41;5071688;28;20039;-45
2022/09/02 02:41:58;;;;;;;;;;;;;;;21.19;62.62;99082.25;5072166;28;20027;-45
2022/09/02 02:44:24;;;;;;;;;;;;;;;21.45;60.22;99071.63;5071664;28;20377;-45
2022/09/02 02:46:49;;;;;;;;;;;;;;;21.50;60.35;99083.41;5072616;28;20503;-45
2022/09/02 02:49:14;;;;;;;;;;;;;;;21.95;57.89;99066.09;5071544;28;20008;-45
2022/09/02 02:51:40;;;;;;;;;;;;;;;22.14;56.38;99069.75;5072944;28;19999;-45
2022/09/02 02:54:05;;;;;;;;;;;;;;;22.27;56.49;99058.31;5071161;28;19930;-45
2022/09/02 02:56:30;;;;;;;;;;;;;;;22.31;56.38;99057.97;5051201;28;19920;-45
2022/09/02 02:58:58;;;;;;;;;;;;;;;22.22;57.13;99068.34;5072812;28;19923;-45
2022/09/02 03:01:23;;;;;;;;;;;;;;;22.33;56.71;99060.47;5072918;28;19928;-45
2022/09/02 03:03:50;;;;;;;;;;;;;;;22.21;58.33;99066.66;5072371;28;19920;-45
2022/09/02 03:06:16;;;;;;;;;;;;;;;22.25;57.59;99058.44;5070928;28;20007;-45
2022/09/02 03:08:41;;;;;;;;;;;;;;;22.28;57.78;99066.09;5072110;28;19912;-45
2022/09/02 03:11:06;;;;;;;;;;;;;;;22.21;58.68;99066.66;5071925;28;20480;-45
2022/09/02 03:13:32;;;;;;;;;;;;;;;21.74;61.61;99063.34;5072371;28;19924;-45
2022/09/02 03:15:58;;;;;;;;;;;;;;;21.66;62.48;99069.16;5072900;28;19916;-45
2022/09/02 03:18:23;;;;;;;;;;;;;;;21.55;62.01;99069.97;5075351;28;19935;-45
2022/09/02 03:20:48;;;;;;;;;;;;;;;21.85;59.86;99063.31;5074557;28;19916;-45
2022/09/02 03:23:13;;;;;;;;;;;;;;;21.68;59.10;99060.22;5057144;28;20380;-45
2022/09/02 03:25:41;;;;;;;;;;;;;;;21.72;59.44;99061.66;5076300;28;19916;-45
2022/09/02 03:28:06;;;;;;;;;;;;;;;21.81;59.17;99065.34;5077051;28;19916;-45
2022/09/02 03:30:31;;;;;;;;;;;;;;;21.24;59.78;99061.78;5078802;28;20373;-45
2022/09/02 03:32:58;;;;;;;;;;;;;;;22.04;59.28;99058.31;5079767;28;20507;-45
2022/09/02 03:35:24;;;;;;;;;;;;;;;22.06;58.44;99053.78;5077426;28;20372;-45
2022/09/02 03:37:49;;;;;;;;;;;;;;;22.02;58.38;99056.78;5078849;28;19927;-45
2022/09/02 03:40:17;;;;;;;;;;;;;;;21.90;59.31;99054.16;5062428;28;20003;-45
2022/09/02 03:42:42;;;;;;;;;;;;;;;22.20;57.51;99054.50;5080068;28;19920;-45
2022/09/02 03:45:08;;;;;;;;;;;;;;;22.22;58.40;99055.25;5080652;28;20518;-45
2022/09/02 03:47:34;;;;;;;;;;;;;;;22.32;56.84;99046.50;5044279;28;19920;-46
2022/09/02 03:49:59;;;;;;;;;;;;;;;22.32;57.80;99053.53;5080544;28;19923;-46
2022/09/02 03:52:24;;;;;;;;;;;;;;;22.22;59.08;99050.00;5080317;28;19951;-46
2022/09/02 03:54:50;;;;;;;;;;;;;;;22.26;57.73;99049.63;5077040;28;19916;-46
2022/09/02 03:57:15;;;;;;;;;;;;;;;22.28;57.51;99049.47;5077081;28;19976;-46
2022/09/02 03:59:40;;;;;;;;;;;;;;;22.22;59.21;99052.63;5078782;28;20293;-46
2022/09/02 04:02:06;;;;;;;;;;;;;;;22.26;58.86;99048.78;5077260;28;19978;-46
2022/09/02 04:04:31;;;;;;;;;;;;;;;22.17;58.56;99045.09;5074989;28;19920;-46
2022/09/02 04:06:56;;;;;;;;;;;;;;;21.63;59.14;99046.63;5074160;28;19959;-45
2022/09/02 04:09:22;;;;;;;;;;;;;;;21.82;61.80;99047.84;5073474;28;19954;-46
2022/09/02 04:11:47;;;;;;;;;;;;;;;22.03;59.93;99046.19;5056972;28;19931;-47
2022/09/02 04:14:12;;;;;;;;;;;;;;;22.02;62.80;99047.13;5059597;28;20011;-46
2022/09/02 04:16:38;;;;;;;;;;;;;;;21.96;62.39;99042.34;5077969;28;19960;-46
2022/09/02 04:19:04;;;;;;;;;;;;;;;21.87;63.99;99048.31;5077375;28;20019;-45
2022/09/02 04:21:31;;;;;;;;;;;;;;;21.84;65.91;99048.56;5076172;28;20017;-46
2022/09/02 04:23:56;;;;;;;;;;;;;;;21.93;63.86;99048.66;5075921;28;19923;-46
2022/09/02 04:26:22;;;;;;;;;;;;;;;21.64;66.14;99048.28;5075342;28;19916;-46
2022/09/02 04:28:47;;;;;;;;;;;;;;;21.49;63.63;99046.88;5074608;28;19912;-45
2022/09/02 04:31:13;;;;;;;;;;;;;;;21.57;64.63;99047.09;5076679;28;20274;-45
2022/09/02 04:33:39;;;;;;;;;;;;;;;21.44;65.51;99052.47;5076320;28;19973;-46
2022/09/02 04:36:07;;;;;;;;;;;;;;;21.46;66.18;99049.72;5075516;28;19917;-45
2022/09/02 04:38:33;;;;;;;;;;;;;;;21.80;65.44;99047.13;5072998;28;20176;-45
2022/09/02 04:40:58;;;;;;;;;;;;;;;21.67;67.83;99049.88;5057069;28;19957;-45
2022/09/02 04:43:23;;;;;;;;;;;;;;;21.64;68.46;99048.28;5075325;28;19970;-45
2022/09/02 04:45:49;;;;;;;;;;;;;;;21.61;69.08;99048.53;5074436;28;19963;-46
2022/09/02 04:48:15;;;;;;;;;;;;;;;21.95;67.45;99048.56;5075213;28;19920;-45
2022/09/02 04:50:40;;;;;;;;;;;;;;;22.09;66.60;99042.22;5075953;28;19939;-45
2022/09/02 04:53:06;;;;;;;;;;;;;;;22.02;59.75;99031.38;5075822;28;19924;-45
2022/09/02 04:55:31;;;;;;;;;;;;;;;22.01;61.14;99034.97;5075383;28;19920;-45
2022/09/02 04:57:57;;;;;;;;;;;;;;;22.29;63.83;99044.13;5072112;28;20003;-45
2022/09/02 05:00:23;;;;;;;;;;;;;;;22.30;64.32;99039.72;5072337;28;19975;-45
2022/09/02 05:02:48;;;;;;;;;;;;;;;22.20;64.19;99044.00;5065532;28;20606;-46
2022/09/02 05:05:13;;;;;;;;;;;;;;;22.25;66.00;99044.50;5072441;28;19928;-45
2022/09/02 05:07:39;;;;;;;;;;;;;;;22.26;62.46;99038.28;5074435;28;19912;-46
2022/09/02 05:10:05;;;;;;;;;;;;;;;22.32;63.62;99037.78;5073604;28;19923;-45
2022/09/02 05:12:30;;;;;;;;;;;;;;;22.34;64.12;99049.00;5074303;28;19916;-45
2022/09/02 05:14:58;;;;;;;;;;;;;;;21.78;70.37;99054.25;5073768;28;20277;-46
2022/09/02 05:17:25;;;;;;;;;;;;;;;22.13;69.53;99047.09;5074098;28;19916;-46
2022/09/02 05:19:50;;;;;;;;;;;;;;;22.21;69.17;99050.91;5052218;28;20053;-46
2022/09/02 05:22:16;;;;;;;;;;;;;;;22.30;69.60;99052.81;5072567;28;19915;-46
2022/09/02 05:24:41;;;;;;;;;;;;;;;22.35;70.55;99063.78;5074209;28;19923;-46
2022/09/02 05:27:07;;;;;;;;;;;;;;;22.38;70.22;99049.59;5073842;28;19920;-46
2022/09/02 05:29:32;;;;;;;;;;;;;;;22.34;69.25;99049.84;5074050;28;19923;-46
2022/09/02 05:31:57;;;;;;;;;;;;;;;22.44;67.66;99047.31;5073088;28;19920;-46
2022/09/02 05:34:22;;;;;;;;;;;;;;;22.46;66.89;99044.56;5074391;28;19920;-45
2022/09/02 05:36:48;;;;;;;;;;;;;;;22.49;66.72;99045.16;5056097;28;19951;-46
2022/09/02 05:39:13;;;;;;;;;;;;;;;22.52;66.25;99044.91;5074534;28;20293;-45
2022/09/02 05:41:38;;;;;;;;;;;;;;;22.66;67.51;99043.78;5074603;28;19916;-46
2022/09/02 05:44:04;;;;;;;;;;;;;;;22.66;68.13;99049.03;5075291;28;20685;-45
2022/09/02 05:46:29;;;;;;;;;;;;;;;22.50;66.36;99045.97;5074013;28;19924;-46
2022/09/02 05:49:16;;;;;;;;;;;;;;;22.75;63.46;99040.41;5073436;28;19916;-45
2022/09/02 05:51:41;;;;;;;;;;;;;;;22.75;63.55;99042.19;5074444;28;19940;-46
2022/09/02 05:54:08;;;;;;;;;;;;;;;22.52;59.71;99037.03;5075236;28;20403;-45
2022/09/02 05:56:33;;;;;;;;;;;;;;;22.54;67.10;99037.75;5073777;28;19931;-46
2022/09/02 05:58:59;;;;;;;;;;;;;;;22.71;64.65;99043.41;5074113;28;19987;-46
2022/09/02 06:01:24;;;;;;;;;;;;;;;22.41;64.75;99046.72;5074290;28;19970;-46
2022/09/02 06:03:51;;;;;;;;;;;;;;;22.58;62.98;99033.09;5075522;28;20014;-46
2022/09/02 06:06:17;;;;;;;;;;;;;;;22.53;65.00;99038.72;5073837;28;19916;-46
2022/09/02 06:08:42;;;;;;;;;;;;;;;22.90;64.63;99038.31;5049306;28;19920;-46
2022/09/02 06:11:08;;;;;;;;;;;;;;;22.80;70.23;99042.66;5074598;28;19916;-46
2022/09/02 06:13:34;;;;;;;;;;;;;;;22.92;71.91;99046.06;5054847;28;19963;-46
2022/09/02 06:16:00;;;;;;;;;;;;;;;22.82;73.34;99048.59;5074060;28;19965;-46
2022/09/02 06:18:26;;;;;;;;;;;;;;;22.76;76.52;99043.84;5072721;28;19973;-46
2022/09/02 06:20:51;;;;;;;;;;;;;;;22.84;73.94;99038.81;5074293;28;20328;-46
2022/09/02 06:23:16;;;;;;;;;;;;;;;22.90;71.51;99040.13;5073568;28;19923;-46
2022/09/02 06:25:43;;;;;;;;;;;;;;;23.01;70.92;99042.69;5072349;28;19930;-46
2022/09/02 06:28:08;;;;;;;;;;;;;;;23.15;69.40;99033.69;5073710;28;20270;-46
2022/09/02 06:30:34;;;;;;;;;;;;;;;23.12;69.24;99042.63;5072987;28;19924;-46
2022/09/02 06:33:02;;;;;;;;;;;;;;;23.26;68.70;99038.03;5073663;28;19916;-46
2022/09/02 06:35:28;;;;;;;;;;;;;;;23.04;70.16;99044.25;5073986;28;19958;-46
2022/09/02 06:37:53;;;;;;;;;;;;;;;23.10;70.98;99033.22;5072752;28;20079;-46
2022/09/02 06:40:18;;;;;;;;;;;;;;;23.22;69.25;99036.63;5073222;28;19916;-46
2022/09/02 06:42:44;;;;;;;;;;;;;;;23.12;70.89;99036.56;5073399;28;19916;-46
2022/09/02 06:45:09;;;;;;;;;;;;;;;23.17;72.93;99040.47;5073443;28;19920;-46
2022/09/02 06:47:34;;;;;;;;;;;;;;;23.35;73.09;99043.34;5071669;28;19928;-46
2022/09/02 06:50:00;;;;;;;;;;;;;;;23.38;73.80;99042.28;5072494;28;20503;-46
2022/09/02 06:52:25;;;;;;;;;;;;;;;23.33;75.50;99041.81;5077827;28;19965;-46
2022/09/02 06:54:50;;;;;;;;;;;;;;;23.46;75.27;99044.25;5079938;28;19920;-46
2022/09/02 06:57:16;;;;;;;;;;;;;;;23.55;75.50;99048.72;5075912;28;19920;-46
2022/09/02 06:59:41;;;;;;;;;;;;;;;23.70;74.84;99042.16;5077877;28;19916;-46
2022/09/02 07:02:06;;;;;;;;;;;;;;;23.71;71.22;99042.97;5077421;28;20979;-46
2022/09/02 07:07:15;;;;;;;;;;;;;;;23.89;72.23;99041.41;5076494;28;19923;-46
2022/09/02 07:09:40;;;;;;;;;;;;;;;23.97;73.00;99043.38;5076861;28;19916;-46
2022/09/02 07:12:07;;;;;;;;;;;;;;;23.77;73.76;99040.69;5076898;28;19916;-46
2022/09/02 07:14:36;;;;;;;;;;;;;;;23.85;71.71;99044.44;5075375;28;19916;-46
2022/09/02 07:17:02;;;;;;;;;;;;;;;23.87;73.26;99043.34;5076757;28;20011;-46
2022/09/02 07:19:27;;;;;;;;;;;;;;;24.14;69.41;99034.84;5076294;28;19916;-46
2022/09/02 07:21:52;;;;;;;;;;;;;;;24.30;71.00;99038.78;5076957;28;20550;-46
2022/09/02 07:24:17;;;;;;;;;;;;;;;24.40;67.04;99034.34;5075604;28;20301;-46
2022/09/02 07:26:43;;;;;;;;;;;;;;;24.52;66.64;99030.66;5074790;28;20007;-46
2022/09/02 07:29:08;;;;;;;;;;;;;;;24.54;69.36;99036.63;5075908;28;19923;-46
2022/09/02 07:31:37;;;;;;;;;;;;;;;24.52;68.91;99038.56;5076687;28;19927;-46
2022/09/02 07:34:03;;;;;;;;;;;;;;;24.60;68.22;99036.06;5076730;28;19923;-46
2022/09/02 07:36:28;;;;;;;;;;;;;;;24.53;69.30;99040.22;5076524;28;19920;-45
2022/09/02 07:38:53;;;;;;;;;;;;;;;24.52;69.21;99041.19;5075351;28;20041;-46
2022/09/02 07:41:19;;;;;;;;;;;;;;;24.66;65.88;99028.59;5076945;28;19923;-46
2022/09/02 07:43:44;;;;;;;;;;;;;;;24.59;69.39;99042.31;5076539;28;20465;-46
2022/09/02 07:46:10;;;;;;;;;;;;;;;24.83;67.96;99035.78;5076031;28;20491;-46
2022/09/02 07:48:35;;;;;;;;;;;;;;;24.47;71.20;99045.16;5074588;28;20013;-46
2022/09/02 07:51:00;;;;;;;;;;;;;;;24.68;70.51;99042.44;5076494;28;20368;-46
2022/09/02 07:53:26;;;;;;;;;;;;;;;25.11;67.50;99038.53;5076415;28;20046;-42
2022/09/02 07:55:51;;;;;;;;;;;;;;;24.98;66.92;99036.22;5075275;28;19924;-42
2022/09/02 07:58:18;;;;;;;;;;;;;;;25.28;65.45;99035.22;5075312;28;20646;-42
2022/09/02 08:00:44;;;;;;;;;;;;;;;25.62;63.85;99034.69;5076675;28;20346;-42
2022/09/02 08:03:10;;;;;;;;;;;;;;;25.72;61.74;99032.84;5074923;28;20003;-42
2022/09/02 08:05:35;;;;;;;;;;;;;;;25.84;61.14;99031.69;5075156;28;20288;-42
2022/09/02 08:08:00;;;;;;;;;;;;;;;26.11;60.65;99030.03;5075597;28;19916;-43
2022/09/02 08:10:28;;;;;;;;;;;;;;;26.27;60.39;99035.53;5075915;28;19916;-42
2022/09/02 08:12:53;;;;;;;;;;;;;;;26.16;59.70;99032.25;5076712;28;20011;-43
2022/09/02 08:15:19;;;;;;;;;;;;;;;26.27;60.27;99024.97;5067037;28;20035;-42
2022/09/02 08:17:45;;;;;;;;;;;;;;;26.59;59.60;99023.63;5076051;28;20357;-43
2022/09/02 08:20:11;;;;;;;;;;;;;;;26.78;57.88;99029.78;5075858;28;19923;-43
2022/09/02 08:22:36;;;;;;;;;;;;;;;26.96;58.59;99027.94;5075982;28;19916;-43
2022/09/02 08:25:02;;;;;;;;;;;;;;;27.03;59.06;99023.69;5058447;28;19923;-42
2022/09/02 08:27:27;;;;;;;;;;;;;;;26.99;59.55;99032.91;5075082;28;19922;-43
2022/09/02 08:29:53;;;;;;;;;;;;;;;27.40;58.28;99035.88;5076023;28;19960;-42
2022/09/02 08:32:18;;;;;;;;;;;;;;;27.19;58.28;99032.75;5075436;28;20364;-44
2022/09/02 08:34:43;;;;;;;;;;;;;;;27.00;57.70;99033.72;5076309;28;19976;-42
2022/09/02 08:37:08;;;;;;;;;;;;;;;26.97;57.76;99032.22;5075645;28;20087;-43
2022/09/02 08:39:35;;;;;;;;;;;;;;;26.78;56.36;99027.97;5075023;28;20019;-43
2022/09/02 08:42:08;;;;;;;;;;;;;;;27.28;54.79;99026.56;5075700;28;20005;-43
2022/09/02 08:44:35;;;;;;;;;;;;;;;26.44;56.83;99033.06;5057970;28;19924;-43
2022/09/02 08:47:01;;;;;;;;;;;;;;;26.21;61.42;99033.47;5075794;28;19916;-43
2022/09/02 08:49:30;;;;;;;;;;;;;;;27.37;55.46;99030.91;5075463;28;19916;-43
2022/09/02 08:51:56;;;;;;;;;;;;;;;27.42;56.96;99033.91;5075393;28;19920;-43
2022/09/02 08:54:21;;;;;;;;;;;;;;;28.16;56.15;99028.97;5056851;28;20353;-43
2022/09/02 08:56:50;;;;;;;;;;;;;;;28.76;51.68;99025.25;5074719;28;19915;-43
2022/09/02 08:59:17;;;;;;;;;;;;;;;28.10;51.52;99026.94;5075555;28;19920;-43
2022/09/02 09:01:48;;;;;;;;;;;;;;;28.26;52.63;99023.50;5074849;28;19915;-43
2022/09/02 09:04:23;;;;;;;;;;;;;;;29.15;50.56;99022.81;5075657;28;19920;-43
2022/09/02 09:06:52;;;;;;;;;;;;;;;29.52;46.23;99016.09;5074130;28;20401;-43
2022/09/02 09:09:24;;;;;;;;;;;;;;;28.03;46.45;99018.84;5074817;28;19923;-43
2022/09/02 09:11:54;;;;;;;;;;;;;;;28.48;49.46;99020.28;5056961;28;19959;-43
2022/09/02 09:14:25;;;;;;;;;;;;;;;29.38;46.13;99003.53;5056687;28;19915;-43
2022/09/02 09:17:00;;;;;;;;;;;;;;;29.34;44.53;98999.56;5075001;28;19967;-42
2022/09/02 09:19:35;;;;;;;;;;;;;;;29.12;44.46;98996.59;5056248;28;20467;-43
2022/09/02 09:22:02;;;;;;;;;;;;;;;29.11;44.71;98997.63;5052616;28;19926;-43
2022/09/02 09:24:43;;;;;;;;;;;;;;;29.41;44.10;99000.53;5056569;28;20597;-43
2022/09/02 09:27:10;;;;;;;;;;;;;;;29.56;42.44;98993.53;5056499;28;19951;-44
2022/09/02 09:29:35;;;;;;;;;;;;;;;28.48;44.12;98993.78;5056232;28;19916;-43
2022/09/02 09:32:00;;;;;;;;;;;;;;;30.57;43.95;98981.22;5074939;28;19920;-43
2022/09/02 09:34:47;;;;;;;;;;;;;;;30.08;40.00;98976.22;5055941;28;19920;-43
2022/09/02 09:37:23;;;;;;;;;;;;;;;29.88;37.31;98967.88;5075572;28;19916;-44
2022/09/02 09:39:48;;;;;;;;;;;;;;;29.05;41.60;98981.53;5056290;28;20039;-43
2022/09/02 09:42:13;;;;;;;;;;;;;;;29.91;37.44;98975.50;5074745;28;19915;-43
2022/09/02 09:44:43;;;;;;;;;;;;;;;29.67;38.07;98972.91;5055777;28;19916;-44
2022/09/02 09:47:16;;;;;;;;;;;;;;;29.51;39.91;98976.44;5073616;28;19986;-43
2022/09/02 09:49:41;;;;;;;;;;;;;;;28.84;39.96;98961.66;5072999;28;20014;-43
2022/09/02 09:52:06;;;;;;;;;;;;;;;30.41;37.30;98963.56;5066514;28;20014;-44
2022/09/02 09:54:32;;;;;;;;;;;;;;;30.13;37.19;98965.06;5074528;28;19920;-44
2022/09/02 09:57:12;;;;;;;;;;;;;;;30.73;37.20;98964.31;5073374;28;19966;-44
2022/09/02 09:59:41;;;;;;;;;;;;;;;31.94;34.64;98954.34;5056813;28;19923;-44
2022/09/02 10:02:12;;;;;;;;;;;;;;;31.65;34.82;98950.72;5074799;28;19999;-44
2022/09/02 10:04:37;;;;;;;;;;;;;;;29.04;35.67;98956.84;5055899;28;20011;-43
2022/09/02 10:07:02;;;;;;;;;;;;;;;29.58;36.94;98953.53;5073608;28;21038;-44
2022/09/02 10:09:32;;;;;;;;;;;;;;;30.66;33.82;98941.31;5074397;28;19991;-44
2022/09/02 10:11:58;;;;;;;;;;;;;;;30.52;34.04;98940.22;5056571;28;19920;-43
2022/09/02 10:14:25;;;;;;;;;;;;;;;28.75;32.67;98942.28;5074542;28;20049;-44
2022/09/02 10:16:50;;;;;;;;;;;;;;;29.84;32.90;98942.69;5054648;28;19923;-44
2022/09/02 10:19:15;;;;;;;;;;;;;;;28.29;34.09;98941.09;5074186;28;19916;-44
2022/09/02 10:21:53;;;;;;;;;;;;;;;30.28;32.22;98928.81;5073571;28;19912;-45
2022/09/02 10:24:18;;;;;;;;;;;;;;;29.77;33.23;98936.41;5073992;28;20072;-44
2022/09/02 10:26:47;;;;;;;;;;;;;;;28.57;33.22;98934.50;5073301;28;20406;-44
2022/09/02 10:29:16;;;;;;;;;;;;;;;28.93;33.25;98936.78;5056340;28;19969;-44
2022/09/02 10:31:41;;;;;;;;;;;;;;;29.83;32.86;98938.34;5074346;28;19987;-44
2022/09/02 10:34:13;;;;;;;;;;;;;;;29.17;31.75;98924.50;5054638;28;19916;-45
2022/09/02 10:36:57;;;;;;;;;;;;;;;29.63;32.02;98929.13;5055607;28;19923;-44
2022/09/02 10:39:26;;;;;;;;;;;;;;;28.31;35.14;98928.53;5073303;28;20291;-44
2022/09/02 10:41:51;;;;;;;;;;;;;;;27.82;35.10;98931.06;5055677;28;19916;-44
2022/09/02 10:44:25;;;;;;;;;;;;;;;29.78;33.75;98922.13;5073640;28;19919;-44
2022/09/02 10:46:51;;;;;;;;;;;;;;;29.77;32.88;98925.78;5045391;28;19962;-44
2022/09/02 10:49:16;;;;;;;;;;;;;;;29.96;32.97;98925.34;5073040;28;20363;-44
2022/09/02 10:51:44;;;;;;;;;;;;;;;30.03;32.02;98923.63;5073086;28;20725;-45
2022/09/02 10:54:25;;;;;;;;;;;;;;;30.97;30.51;98917.25;5074534;28;20423;-45
2022/09/02 10:56:57;;;;;;;;;;;;;;;31.53;31.13;98917.63;5055199;28;19916;-47
2022/09/02 10:59:23;;;;;;;;;;;;;;;31.33;29.53;98916.53;5055913;28;20534;-45
2022/09/02 11:01:56;;;;;;;;;;;;;;;33.54;28.43;98912.97;5056054;28;19927;-45
2022/09/02 11:04:36;;;;;;;;;;;;;;;31.03;30.80;98927.97;5054640;28;19922;-45
2022/09/02 11:07:01;;;;;;;;;;;;;;;30.00;31.27;98926.63;5072769;28;19927;-45
2022/09/02 11:09:47;;;;;;;;;;;;;;;30.11;31.63;98911.31;5053421;28;19916;-46
2022/09/02 11:12:17;;;;;;;;;;;;;;;30.68;31.68;98910.88;5053456;28;20015;-45
2022/09/02 11:15:01;;;;;;;;;;;;;;;31.53;30.44;98911.47;5071230;28;19916;-44
2022/09/02 11:17:32;;;;;;;;;;;;;;;30.99;30.12;98916.06;5071916;28;19924;-44
2022/09/02 11:19:57;;;;;;;;;;;;;;;31.87;30.54;98918.84;5072932;28;19923;-45
2022/09/02 11:22:22;;;;;;;;;;;;;;;30.90;30.82;98917.16;5073667;28;19916;-45
2022/09/02 11:24:51;;;;;;;;;;;;;;;30.44;30.38;98912.72;5073740;28;19972;-46
2022/09/02 11:27:22;;;;;;;;;;;;;;;32.56;29.73;98902.31;5073750;28;19981;-45
2022/09/02 11:30:06;;;;;;;;;;;;;;;32.21;30.16;98901.38;5050853;28;20289;-45
2022/09/02 11:32:58;;;;;;;;;;;;;;;32.36;29.09;98898.63;5055149;28;19946;-45
2022/09/02 11:35:26;;;;;;;;;;;;;;;32.59;28.12;98885.91;5023778;28;20007;-44
2022/09/02 11:37:57;;;;;;;;;;;;;;;35.64;26.45;98893.84;5074680;28;19916;-46
2022/09/02 11:40:24;;;;;;;;;;;;;;;32.04;29.76;98898.94;5076957;28;19915;-46
2022/09/02 11:42:49;;;;;;;;;;;;;;;32.00;29.57;98903.03;5077103;28;19927;-46
2022/09/02 11:45:16;;;;;;;;;;;;;;;31.51;30.57;98906.34;5076671;28;19916;-46
2022/09/02 11:47:41;;;;;;;;;;;;;;;31.80;30.02;98902.78;5074971;28;19916;-45
2022/09/02 11:50:12;;;;;;;;;;;;;;;31.76;28.75;98895.38;5076033;28;19922;-44
2022/09/02 11:52:50;;;;;;;;;;;;;;;30.41;31.70;98906.97;5070359;28;20087;-45
2022/09/02 11:55:15;;;;;;;;;;;;;;;28.90;31.97;98901.84;5056756;28;19927;-46
2022/09/02 11:57:41;;;;;;;;;;;;;;;29.36;32.01;98894.94;5070424;28;20939;-44
2022/09/02 12:00:08;;;;;;;;;;;;;;;29.85;31.58;98895.72;5056068;28;21374;-46
2022/09/02 12:02:35;;;;;;;;;;;;;;;31.06;29.55;98884.22;5056468;28;19924;-44
2022/09/02 12:05:20;;;;;;;;;;;;;;;30.12;30.33;98886.41;5058756;28;19916;-45
2022/09/02 12:07:46;;;;;;;;;;;;;;;32.60;29.01;98878.75;5060188;28;19920;-44
2022/09/02 12:10:33;;;;;;;;;;;;;;;32.81;28.57;98873.34;5076710;28;19916;-44
2022/09/02 12:12:59;;;;;;;;;;;;;;;33.16;28.90;98876.03;5075834;28;19924;-45
2022/09/02 12:15:24;;;;;;;;;;;;;;;30.68;30.55;98881.63;5075876;28;19970;-45
2022/09/02 12:17:50;;;;;;;;;;;;;;;31.80;29.31;98876.16;5077124;28;20737;-45
2022/09/02 12:20:34;;;;;;;;;;;;;;;34.40;27.90;98864.25;5076811;28;19958;-45
2022/09/02 12:22:59;;;;;;;;;;;;;;;33.11;27.29;98862.47;5075545;28;20433;-46
2022/09/02 12:25:25;;;;;;;;;;;;;;;34.05;27.39;98864.41;5075512;28;19920;-46
2022/09/02 12:28:07;;;;;;;;;;;;;;;33.43;27.68;98865.47;5073839;28;20536;-45
2022/09/02 12:30:51;;;;;;;;;;;;;;;34.62;27.96;98864.84;5076368;28;19973;-47
2022/09/02 12:33:24;;;;;;;;;;;;;;;34.09;27.22;98854.13;5075488;28;19998;-46
2022/09/02 12:35:51;;;;;;;;;;;;;;;31.50;29.34;98864.78;5057854;28;19916;-45
2022/09/02 12:38:20;;;;;;;;;;;;;;;33.16;27.38;98838.66;5056452;28;19954;-45
2022/09/02 12:40:52;;;;;;;;;;;;;;;35.58;26.67;98852.59;5073056;28;19916;-46
2022/09/02 12:43:19;;;;;;;;;;;;;;;35.07;27.10;98858.78;5076643;28;21070;-46
2022/09/02 12:45:44;;;;;;;;;;;;;;;34.18;27.71;98847.59;5075968;28;19924;-45
2022/09/02 12:48:15;;;;;;;;;;;;;;;35.54;27.58;98846.06;5056622;28;20357;-46
2022/09/02 12:50:43;;;;;;;;;;;;;;;33.04;28.65;98837.56;5075863;28;19938;-45